Time;durP1;ratioP1;P1;durP2;ratioP2;P2;SDS_P1;SDS_P2;PMS_P1;PMS_P2;Temp;Humidity;BMP_temperature;BMP_pressure;BME280_temperature;BME280_humidity;BME280_pressure;Samples;Min_cycle;Max_cycle;Signal;HPM_P1;HPM_P2
2024/04/24 00:01:38;;;;;;;4.23;2.27;;;4.60;99.90;;;;;;5239810;27;20242;-63
2024/04/24 00:04:03;;;;;;;2.17;1.83;;;4.60;99.90;;;;;;5237734;27;20309;-64
2024/04/24 00:06:29;;;;;;;5.47;3.10;;;4.60;99.90;;;;;;5222266;27;20235;-64
2024/04/24 00:08:55;;;;;;;4.60;3.23;;;4.60;99.90;;;;;;5222133;27;20238;-65
2024/04/24 00:11:22;;;;;;;6.37;2.87;;;4.60;99.90;;;;;;5220492;27;20247;-65
2024/04/24 00:13:47;;;;;;;3.13;2.17;;;4.60;99.90;;;;;;5222121;27;20239;-63
2024/04/24 00:16:13;;;;;;;5.00;2.23;;;4.60;99.90;;;;;;5227705;27;20835;-64
2024/04/24 00:18:40;;;;;;;2.33;1.93;;;4.60;99.90;;;;;;5267649;27;20242;-63
2024/04/24 00:21:06;;;;;;;5.30;3.50;;;4.70;99.90;;;;;;5226973;27;20332;-64
2024/04/24 00:23:32;;;;;;;3.97;2.67;;;4.80;99.90;;;;;;5241293;27;20241;-64
2024/04/24 00:25:57;;;;;;;4.93;2.47;;;4.70;99.90;;;;;;5241136;27;20276;-63
2024/04/24 00:28:23;;;;;;;3.10;2.37;;;4.80;99.90;;;;;;5233216;27;20281;-65
2024/04/24 00:30:55;;;;;;;3.03;2.63;;;4.80;99.90;;;;;;5234907;27;20295;-64
2024/04/24 00:33:20;;;;;;;3.07;2.70;;;4.70;99.90;;;;;;5241609;27;20226;-63
2024/04/24 00:35:46;;;;;;;4.33;2.43;;;4.80;99.90;;;;;;5241403;27;20293;-64
2024/04/24 00:38:11;;;;;;;5.57;3.87;;;4.80;99.90;;;;;;5240817;27;20279;-64
2024/04/24 00:40:38;;;;;;;3.53;2.43;;;4.80;99.90;;;;;;5229314;27;20231;-64
2024/04/24 00:43:04;;;;;;;5.43;2.77;;;4.80;99.90;;;;;;5225846;27;20731;-63
2024/04/24 00:45:29;;;;;;;4.13;2.87;;;4.90;99.90;;;;;;5241161;27;20266;-63
2024/04/24 00:47:56;;;;;;;2.23;2.03;;;4.90;99.90;;;;;;5225522;27;20225;-64
2024/04/24 00:50:23;;;;;;;3.80;2.40;;;4.90;99.90;;;;;;5228721;27;20284;-64
2024/04/24 00:52:49;;;;;;;3.90;2.50;;;4.90;99.90;;;;;;5240835;27;20305;-65
2024/04/24 00:55:14;;;;;;;2.97;1.90;;;4.80;99.90;;;;;;5241235;27;20288;-64
2024/04/24 00:57:41;;;;;;;4.23;2.63;;;4.80;99.90;;;;;;5227263;27;20789;-64
2024/04/24 01:00:07;;;;;;;3.13;1.93;;;4.70;99.90;;;;;;5238269;27;20233;-65
2024/04/24 01:02:33;;;;;;;2.60;2.03;;;4.80;99.90;;;;;;5240835;27;20281;-65
2024/04/24 01:04:58;;;;;;;3.27;2.13;;;4.80;99.90;;;;;;5227006;27;20235;-64
2024/04/24 01:07:24;;;;;;;4.70;2.07;;;4.80;99.90;;;;;;5240814;27;20234;-64
2024/04/24 01:09:50;;;;;;;3.10;1.87;;;4.80;99.90;;;;;;5240655;27;20280;-65
2024/04/24 01:12:15;;;;;;;3.47;2.07;;;4.80;99.90;;;;;;5239619;27;20782;-66
2024/04/24 01:14:41;;;;;;;2.57;2.30;;;4.70;99.90;;;;;;5240720;27;20578;-64
2024/04/24 01:17:08;;;;;;;2.60;2.03;;;4.80;99.90;;;;;;5238863;27;20781;-64
2024/04/24 01:19:46;;;;;;;3.40;1.67;;;4.80;99.90;;;;;;5240584;27;20680;-65
2024/04/24 01:22:53;;;;;;;3.27;2.20;;;4.80;99.90;;;;;;5239895;27;20293;-64
2024/04/24 01:25:38;;;;;;;3.00;1.97;;;4.80;99.90;;;;;;5231880;27;20243;-64
2024/04/24 01:28:04;;;;;;;5.67;3.00;;;4.80;99.90;;;;;;5240353;27;20233;-64
2024/04/24 01:30:29;;;;;;;2.30;1.97;;;4.80;99.90;;;;;;5239898;27;20713;-64
2024/04/24 01:32:55;;;;;;;3.30;2.53;;;4.80;99.90;;;;;;5240807;27;20233;-64
2024/04/24 01:35:21;;;;;;;3.27;2.00;;;4.80;99.90;;;;;;5240533;27;20241;-64
2024/04/24 01:37:46;;;;;;;1.37;1.20;;;4.80;99.90;;;;;;5240558;27;20586;-64
2024/04/24 01:40:12;;;;;;;4.87;2.30;;;4.90;99.90;;;;;;5239642;27;20617;-64
2024/04/24 01:42:37;;;;;;;4.53;2.00;;;4.80;99.90;;;;;;5229140;27;20529;-64
2024/04/24 01:45:03;;;;;;;4.10;2.67;;;4.90;99.90;;;;;;5210355;27;20231;-64
2024/04/24 01:47:29;;;;;;;4.60;2.33;;;4.90;99.90;;;;;;5240234;27;20238;-64
2024/04/24 01:49:54;;;;;;;4.60;2.37;;;5.00;99.90;;;;;;5239872;27;20355;-65
2024/04/24 01:52:20;;;;;;;4.30;2.67;;;4.90;99.90;;;;;;5240362;27;20246;-64
2024/04/24 01:54:45;;;;;;;6.23;2.90;;;4.90;99.90;;;;;;5240028;27;20272;-64
2024/04/24 01:57:11;;;;;;;2.57;2.27;;;4.90;99.90;;;;;;5240238;27;20249;-64
2024/04/24 01:59:36;;;;;;;4.50;2.33;;;4.90;99.90;;;;;;5226226;27;20245;-65
2024/04/24 02:02:02;;;;;;;4.73;2.30;;;4.90;99.90;;;;;;5239101;27;20242;-64
2024/04/24 02:04:28;;;;;;;2.83;1.73;;;4.90;99.90;;;;;;5240155;27;20271;-65
2024/04/24 02:06:53;;;;;;;4.53;2.70;;;4.90;99.90;;;;;;5239775;27;20237;-64
2024/04/24 02:09:19;;;;;;;3.90;2.60;;;4.90;99.90;;;;;;5232972;27;21523;-64
2024/04/24 02:11:44;;;;;;;4.47;2.27;;;4.90;99.90;;;;;;5206145;27;20251;-65
2024/04/24 02:14:10;;;;;;;6.80;2.70;;;4.80;99.90;;;;;;5220711;27;20865;-64
2024/04/24 02:16:35;;;;;;;5.10;2.97;;;4.80;99.90;;;;;;5217347;27;20753;-64
2024/04/24 02:19:01;;;;;;;3.30;2.77;;;4.70;99.90;;;;;;5223338;27;20725;-64
2024/04/24 02:21:27;;;;;;;3.67;2.73;;;4.80;99.90;;;;;;5219844;27;20357;-64
2024/04/24 02:23:52;;;;;;;4.50;2.60;;;4.80;99.90;;;;;;5219086;27;20247;-64
2024/04/24 02:26:18;;;;;;;3.67;2.60;;;4.70;99.90;;;;;;5227036;27;20226;-64
2024/04/24 02:28:44;;;;;;;3.57;2.87;;;4.70;99.90;;;;;;5226416;27;20233;-64
2024/04/24 02:31:09;;;;;;;3.63;2.53;;;4.60;99.90;;;;;;5238834;27;20245;-64
2024/04/24 02:33:35;;;;;;;3.33;2.00;;;4.70;99.90;;;;;;5226155;27;20233;-64
2024/04/24 02:36:01;;;;;;;3.53;2.60;;;4.70;99.90;;;;;;5239561;27;20290;-64
2024/04/24 02:38:26;;;;;;;3.43;2.37;;;4.70;99.90;;;;;;5239676;27;20703;-64
2024/04/24 02:40:52;;;;;;;4.17;2.90;;;4.60;99.90;;;;;;5238756;27;20237;-63
2024/04/24 02:43:17;;;;;;;4.57;2.40;;;4.70;99.90;;;;;;5239590;27;20242;-64
2024/04/24 02:45:43;;;;;;;3.90;2.40;;;4.60;99.90;;;;;;5239378;27;20245;-63
2024/04/24 02:48:08;;;;;;;2.70;1.73;;;4.60;99.90;;;;;;5235234;27;20233;-63
2024/04/24 02:50:34;;;;;;;4.73;2.63;;;4.50;99.90;;;;;;5229567;27;20237;-64
2024/04/24 02:52:59;;;;;;;3.20;2.00;;;4.60;99.90;;;;;;5239314;27;20234;-64
2024/04/24 02:55:25;;;;;;;3.47;1.67;;;4.60;99.90;;;;;;5231421;27;20330;-64
2024/04/24 02:57:50;;;;;;;2.47;1.77;;;4.40;99.90;;;;;;5206050;27;20344;-64
2024/04/24 03:00:16;;;;;;;3.83;2.13;;;4.40;99.90;;;;;;5237225;27;20245;-64
2024/04/24 03:02:42;;;;;;;4.73;2.80;;;4.30;99.90;;;;;;5227242;27;20285;-63
2024/04/24 03:05:07;;;;;;;2.90;2.27;;;4.30;99.90;;;;;;5237085;27;20650;-63
2024/04/24 03:07:33;;;;;;;2.53;1.93;;;4.30;99.90;;;;;;5239019;27;20238;-63
2024/04/24 03:09:58;;;;;;;1.53;1.13;;;4.30;99.90;;;;;;5238406;27;20309;-63
2024/04/24 03:12:25;;;;;;;2.83;1.80;;;4.30;99.90;;;;;;5238853;27;20238;-63
2024/04/24 03:14:51;;;;;;;2.57;1.87;;;4.30;99.90;;;;;;5225158;27;20238;-64
2024/04/24 03:17:16;;;;;;;3.13;1.77;;;4.30;99.90;;;;;;5238813;27;20812;-62
2024/04/24 03:19:42;;;;;;;2.13;1.33;;;4.30;99.90;;;;;;5225002;27;20643;-62
2024/04/24 03:22:07;;;;;;;2.97;2.17;;;4.30;99.90;;;;;;5238064;27;20310;-63
2024/04/24 03:24:33;;;;;;;1.83;1.53;;;4.30;99.90;;;;;;5238879;27;20723;-62
2024/04/24 03:26:59;;;;;;;1.30;1.20;;;4.30;99.90;;;;;;5238509;27;20242;-64
2024/04/24 03:29:24;;;;;;;1.33;0.97;;;4.30;99.90;;;;;;5238578;27;20352;-64
2024/04/24 03:31:50;;;;;;;1.67;1.20;;;4.30;99.90;;;;;;5238067;27;20270;-64
2024/04/24 03:34:15;;;;;;;1.90;1.13;;;4.20;99.90;;;;;;5238890;27;20288;-64
2024/04/24 03:36:42;;;;;;;2.60;0.93;;;4.20;99.90;;;;;;5242015;27;20352;-64
2024/04/24 03:39:07;;;;;;;1.57;1.33;;;4.20;99.90;;;;;;5238018;27;20270;-63
2024/04/24 03:41:33;;;;;;;0.93;0.87;;;4.20;99.90;;;;;;5208217;27;20286;-63
2024/04/24 03:43:59;;;;;;;1.53;1.40;;;4.20;99.90;;;;;;5236487;27;20264;-62
2024/04/24 03:46:24;;;;;;;1.40;0.97;;;4.20;99.90;;;;;;5208459;27;20308;-64
2024/04/24 03:48:50;;;;;;;1.77;1.13;;;4.20;99.90;;;;;;5236011;27;20370;-64
2024/04/24 03:51:15;;;;;;;0.80;0.60;;;4.10;99.90;;;;;;5227674;27;20759;-64
2024/04/24 03:53:41;;;;;;;1.40;1.10;;;4.20;99.90;;;;;;5241871;27;20336;-64
2024/04/24 03:56:07;;;;;;;1.20;1.03;;;4.10;99.90;;;;;;5224144;27;20342;-64
2024/04/24 03:58:32;;;;;;;0.70;0.70;;;4.10;99.90;;;;;;5235047;27;20241;-64
2024/04/24 04:00:58;;;;;;;1.57;1.27;;;4.10;99.90;;;;;;5223025;27;20321;-64
2024/04/24 04:03:23;;;;;;;1.43;1.00;;;4.10;99.90;;;;;;5241514;27;20292;-64
2024/04/24 04:05:49;;;;;;;1.00;0.90;;;4.10;99.90;;;;;;5242008;27;20242;-64
2024/04/24 04:08:14;;;;;;;2.40;1.13;;;3.90;99.90;;;;;;5225569;27;20230;-64
2024/04/24 04:10:40;;;;;;;2.27;0.97;;;3.90;99.90;;;;;;5227151;27;20250;-64
2024/04/24 04:13:05;;;;;;;1.27;1.10;;;3.90;99.90;;;;;;5241832;27;20233;-64
2024/04/24 04:15:31;;;;;;;0.97;0.70;;;3.80;99.90;;;;;;5223522;27;20238;-64
2024/04/24 04:17:57;;;;;;;0.53;0.53;;;3.80;99.90;;;;;;5241317;27;20245;-64
2024/04/24 04:20:22;;;;;;;0.37;0.37;;;3.80;99.90;;;;;;5240983;27;20250;-64
2024/04/24 04:22:48;;;;;;;0.77;0.77;;;3.80;99.90;;;;;;5225738;27;20714;-64
2024/04/24 04:25:13;;;;;;;0.93;0.80;;;3.80;99.90;;;;;;5212513;27;20352;-64
2024/04/24 04:27:39;;;;;;;0.50;0.50;;;3.80;99.90;;;;;;5228795;27;20328;-64
2024/04/24 04:30:06;;;;;;;0.93;0.80;;;3.80;99.90;;;;;;5240023;27;20280;-65
2024/04/24 04:32:31;;;;;;;0.93;0.70;;;3.70;99.90;;;;;;5250387;27;20287;-64
2024/04/24 04:34:57;;;;;;;0.87;0.80;;;3.70;99.90;;;;;;5240314;27;20234;-64
2024/04/24 04:37:23;;;;;;;0.90;0.80;;;3.70;99.90;;;;;;5240087;27;20242;-63
2024/04/24 04:39:48;;;;;;;1.87;1.03;;;3.80;99.90;;;;;;5240001;27;20238;-64
2024/04/24 04:42:14;;;;;;;0.50;0.50;;;3.80;99.90;;;;;;5225787;27;20237;-63
2024/04/24 04:44:40;;;;;;;2.73;1.17;;;4.00;99.90;;;;;;5240124;27;20761;-63
2024/04/24 04:47:05;;;;;;;1.00;0.83;;;4.00;99.90;;;;;;5239068;27;20268;-63
2024/04/24 04:49:31;;;;;;;2.17;1.30;;;4.10;99.90;;;;;;5239703;27;20242;-64
2024/04/24 04:51:56;;;;;;;1.93;0.83;;;4.10;99.90;;;;;;5265497;27;20241;-64
2024/04/24 04:54:22;;;;;;;1.07;0.80;;;4.20;99.90;;;;;;5240381;27;20279;-64
2024/04/24 04:56:47;;;;;;;0.87;0.77;;;4.20;99.90;;;;;;5239994;27;20718;-64
2024/04/24 04:59:13;;;;;;;1.40;0.93;;;4.20;99.90;;;;;;5238993;27;20379;-64
2024/04/24 05:01:38;;;;;;;3.70;1.40;;;4.20;99.90;;;;;;5237086;27;20284;-63
2024/04/24 05:04:04;;;;;;;1.87;0.67;;;4.30;99.90;;;;;;5223859;27;20243;-64
2024/04/24 05:06:30;;;;;;;0.80;0.70;;;4.30;99.90;;;;;;5239701;27;20233;-64
2024/04/24 05:08:55;;;;;;;0.70;0.70;;;4.40;99.90;;;;;;5224127;27;20719;-64
2024/04/24 05:11:21;;;;;;;2.53;0.93;;;4.30;99.90;;;;;;5239035;27;20588;-64
2024/04/24 05:13:46;;;;;;;1.47;1.13;;;4.30;99.90;;;;;;5239851;27;20234;-64
2024/04/24 05:16:12;;;;;;;2.73;1.10;;;4.30;99.90;;;;;;5239381;27;20284;-63
2024/04/24 05:18:38;;;;;;;1.30;0.93;;;4.30;99.90;;;;;;5239121;27;20238;-64
2024/04/24 05:21:06;;;;;;;0.70;0.70;;;4.30;99.90;;;;;;5225100;27;20291;-63
2024/04/24 05:23:31;;;;;;;1.50;1.00;;;4.30;99.90;;;;;;5239254;27;20366;-63
2024/04/24 05:25:57;;;;;;;1.90;1.03;;;4.30;99.90;;;;;;5239286;27;20226;-64
2024/04/24 05:31:07;;;;;;;2.03;1.63;;;4.40;99.90;;;;;;5238482;27;20769;-64
2024/04/24 05:33:33;;;;;;;1.53;1.30;;;4.40;99.90;;;;;;5239352;27;20233;-64
2024/04/24 05:35:59;;;;;;;2.97;1.40;;;4.40;99.90;;;;;;5239286;27;20276;-64
2024/04/24 05:38:24;;;;;;;3.27;1.57;;;4.50;99.90;;;;;;5239105;27;20250;-63
2024/04/24 05:40:51;;;;;;;1.70;1.30;;;4.50;99.90;;;;;;5238580;27;20278;-64
2024/04/24 05:43:17;;;;;;;3.23;1.47;;;4.60;99.90;;;;;;5239481;27;20306;-63
2024/04/24 05:45:42;;;;;;;1.80;1.10;;;4.70;99.90;;;;;;5251412;27;20242;-63
2024/04/24 05:48:08;;;;;;;2.50;1.47;;;4.70;99.90;;;;;;5238988;27;20245;-64
2024/04/24 05:50:33;;;;;;;2.00;1.33;;;4.60;99.90;;;;;;5238753;27;20327;-64
2024/04/24 05:52:59;;;;;;;0.70;0.70;;;4.60;99.90;;;;;;5238932;27;20589;-64
2024/04/24 05:55:25;;;;;;;2.33;1.33;;;4.50;99.90;;;;;;5239143;27;20848;-64
2024/04/24 05:57:51;;;;;;;1.43;1.07;;;4.60;99.90;;;;;;5237427;27;20833;-64
2024/04/24 06:00:17;;;;;;;0.97;0.77;;;4.70;99.90;;;;;;5238066;27;20241;-64
2024/04/24 06:02:42;;;;;;;1.23;0.77;;;4.70;99.90;;;;;;5225579;27;20579;-64
2024/04/24 06:05:08;;;;;;;2.30;0.90;;;4.80;99.90;;;;;;5238777;27;20230;-64
2024/04/24 06:07:34;;;;;;;1.37;0.80;;;4.90;99.90;;;;;;5265031;27;20276;-64
2024/04/24 06:09:59;;;;;;;1.90;1.40;;;4.90;99.90;;;;;;5238393;27;20237;-64
2024/04/24 06:12:25;;;;;;;1.80;1.03;;;4.90;99.90;;;;;;5239127;27;20234;-65
2024/04/24 06:14:50;;;;;;;4.70;1.37;;;4.90;99.90;;;;;;5238695;27;20234;-65
2024/04/24 06:17:16;;;;;;;1.60;0.80;;;4.90;99.90;;;;;;5239137;27;20293;-65
2024/04/24 06:19:41;;;;;;;1.23;0.90;;;5.00;99.90;;;;;;5224855;27;20277;-65
2024/04/24 06:22:07;;;;;;;3.87;1.80;;;5.00;99.90;;;;;;5238101;27;20245;-64
2024/04/24 06:24:33;;;;;;;2.20;1.50;;;5.10;99.90;;;;;;5238592;27;20284;-64
2024/04/24 06:26:58;;;;;;;0.97;0.87;;;5.20;99.90;;;;;;5238689;27;20245;-65
2024/04/24 06:29:25;;;;;;;1.47;0.90;;;5.20;99.90;;;;;;5238413;27;20288;-65
2024/04/24 06:31:50;;;;;;;1.30;0.80;;;5.00;99.90;;;;;;5238122;27;20317;-64
2024/04/24 06:34:16;;;;;;;1.43;1.20;;;5.10;99.90;;;;;;5238629;27;20253;-64
2024/04/24 06:36:42;;;;;;;2.37;1.13;;;5.10;99.90;;;;;;5238347;27;20360;-64
2024/04/24 06:39:07;;;;;;;2.70;1.50;;;5.30;99.90;;;;;;5238213;27;20348;-64
2024/04/24 06:41:33;;;;;;;1.33;0.93;;;5.30;99.90;;;;;;5237561;27;20245;-64
2024/04/24 06:43:58;;;;;;;7.70;1.47;;;5.30;99.90;;;;;;5264564;27;20234;-64
2024/04/24 06:46:24;;;;;;;1.47;0.97;;;5.30;99.90;;;;;;5238668;27;20844;-64
2024/04/24 06:48:50;;;;;;;1.90;1.00;;;5.30;99.90;;;;;;5224771;27;20238;-64
2024/04/24 06:51:15;;;;;;;0.87;0.63;;;5.30;99.90;;;;;;5224246;27;20272;-64
2024/04/24 06:53:41;;;;;;;0.80;0.80;;;5.50;99.90;;;;;;5238497;27;20579;-64
2024/04/24 06:56:07;;;;;;;1.33;1.03;;;5.70;99.90;;;;;;5238114;27;20249;-63
2024/04/24 06:58:33;;;;;;;0.40;0.40;;;5.70;99.90;;;;;;5238503;27;20682;-63
2024/04/24 07:01:01;;;;;;;1.50;0.80;;;5.80;99.90;;;;;;5237648;27;20565;-63
2024/04/24 07:03:27;;;;;;;0.67;0.57;;;5.90;99.90;;;;;;5230375;27;20243;-64
2024/04/24 07:05:53;;;;;;;1.47;0.80;;;6.00;99.90;;;;;;5232274;27;20234;-63
2024/04/24 07:08:20;;;;;;;0.80;0.60;;;6.00;99.90;;;;;;5238076;27;20285;-64
2024/04/24 07:10:46;;;;;;;1.17;0.70;;;6.00;99.90;;;;;;5239753;27;20453;-63
2024/04/24 07:13:11;;;;;;;7.53;1.20;;;6.00;99.90;;;;;;5241130;27;20623;-63
2024/04/24 07:15:37;;;;;;;0.70;0.50;;;6.20;99.90;;;;;;5241531;27;20246;-63
2024/04/24 07:18:03;;;;;;;1.80;0.87;;;6.50;99.90;;;;;;5239549;27;20233;-63
2024/04/24 07:20:28;;;;;;;1.70;1.00;;;6.90;99.90;;;;;;5226708;27;20242;-63
2024/04/24 07:22:54;;;;;;;0.87;0.63;;;7.00;99.90;;;;;;5241027;27;20355;-64
2024/04/24 07:25:20;;;;;;;3.03;0.80;;;7.30;99.90;;;;;;5241196;27;20245;-63
2024/04/24 07:27:46;;;;;;;4.27;1.17;;;7.40;99.90;;;;;;5228189;27;20787;-63
2024/04/24 07:30:12;;;;;;;2.77;1.17;;;7.70;99.90;;;;;;5225091;27;20233;-65
2024/04/24 07:32:38;;;;;;;1.77;1.50;;;7.50;99.90;;;;;;5227421;27;20583;-64
2024/04/24 07:35:05;;;;;;;0.77;0.53;;;7.20;99.90;;;;;;5239748;27;20343;-64
2024/04/24 07:37:31;;;;;;;0.60;0.60;;;6.90;99.90;;;;;;5230250;27;20238;-65
2024/04/24 07:39:56;;;;;;;0.47;0.43;;;6.70;99.90;;;;;;5225723;27;20292;-64
2024/04/24 07:42:22;;;;;;;1.30;0.90;;;6.30;99.90;;;;;;5241155;27;20631;-63
2024/04/24 07:44:47;;;;;;;2.00;0.80;;;6.10;99.90;;;;;;5240985;27;20238;-64
2024/04/24 07:47:13;;;;;;;3.40;0.93;;;6.30;99.90;;;;;;5240455;27;20241;-64
2024/04/24 07:49:39;;;;;;;1.33;0.93;;;6.90;99.90;;;;;;5225564;27;20289;-64
2024/04/24 07:52:04;;;;;;;2.00;0.93;;;7.60;99.90;;;;;;5239942;27;20245;-63
2024/04/24 07:54:30;;;;;;;0.83;0.60;;;8.40;99.90;;;;;;5240800;27;20629;-63
2024/04/24 07:56:56;;;;;;;0.80;0.50;;;8.50;99.90;;;;;;5240486;27;20325;-64
2024/04/24 07:59:22;;;;;;;1.47;0.70;;;8.60;99.90;;;;;;5240520;27;20737;-64
2024/04/24 08:01:47;;;;;;;3.30;1.13;;;8.30;99.90;;;;;;5226682;27;20249;-64
2024/04/24 08:04:13;;;;;;;1.37;0.73;;;7.90;99.90;;;;;;5240208;27;20233;-64
2024/04/24 08:06:39;;;;;;;1.20;0.67;;;7.00;99.90;;;;;;5240605;27;20718;-64
2024/04/24 08:09:05;;;;;;;0.20;0.20;;;6.30;99.90;;;;;;5240333;27;20309;-64
2024/04/24 08:11:32;;;;;;;0.60;0.60;;;5.70;99.90;;;;;;5239629;27;20640;-65
2024/04/24 08:13:58;;;;;;;0.87;0.60;;;5.60;99.90;;;;;;5240611;27;20272;-64
2024/04/24 08:16:24;;;;;;;0.43;0.43;;;5.70;99.90;;;;;;5240471;27;20647;-64
2024/04/24 08:18:50;;;;;;;2.23;1.27;;;6.00;99.90;;;;;;5240350;27;20632;-63
2024/04/24 08:21:17;;;;;;;1.70;0.50;;;6.20;99.90;;;;;;5225292;27;20634;-64
2024/04/24 08:23:44;;;;;;;7.43;1.50;;;6.60;99.90;;;;;;5240556;27;20246;-63
2024/04/24 08:26:10;;;;;;;1.87;0.80;;;6.80;99.90;;;;;;5240326;27;20278;-63
2024/04/24 08:28:35;;;;;;;0.70;0.60;;;7.50;99.90;;;;;;5239931;27;20281;-63
2024/04/24 08:31:04;;;;;;;1.30;0.80;;;8.40;99.90;;;;;;5239631;27;20292;-64
2024/04/24 08:33:30;;;;;;;3.63;0.43;;;9.10;99.90;;;;;;5232132;27;20771;-64
2024/04/24 08:36:11;;;;;;;0.90;0.57;;;9.50;99.90;;;;;;5234869;27;20237;-65
2024/04/24 08:38:40;;;;;;;2.40;0.60;;;10.10;99.90;;;;;;5226643;27;20753;-64
2024/04/24 08:41:09;;;;;;;1.60;0.87;;;10.20;99.90;;;;;;5236619;27;20289;-65
2024/04/24 08:43:37;;;;;;;1.47;0.87;;;9.70;99.90;;;;;;5229915;27;20293;-64
2024/04/24 08:46:05;;;;;;;0.90;0.60;;;9.20;99.90;;;;;;5238535;27;20714;-64
2024/04/24 08:48:39;;;;;;;0.40;0.40;;;8.60;99.90;;;;;;5240024;27;20258;-65
2024/04/24 08:51:06;;;;;;;0.97;0.50;;;8.20;99.90;;;;;;5239524;27;20355;-65
2024/04/24 08:53:33;;;;;;;0.40;0.40;;;7.90;99.90;;;;;;5240707;27;20272;-65
2024/04/24 08:56:00;;;;;;;1.03;0.73;;;7.70;99.90;;;;;;5239680;27;20428;-64
2024/04/24 08:58:28;;;;;;;0.50;0.30;;;7.40;99.90;;;;;;5239961;27;20281;-64
2024/04/24 09:00:57;;;;;;;1.60;1.00;;;7.30;99.90;;;;;;5238311;27;20242;-64
2024/04/24 09:03:39;;;;;;;2.30;0.60;;;7.10;99.90;;;;;;5240340;27;20245;-64
2024/04/24 09:06:10;;;;;;;0.63;0.47;;;6.90;99.90;;;;;;5239914;27;20264;-65
2024/04/24 09:08:37;;;;;;;0.57;0.50;;;6.90;99.90;;;;;;5229223;27;20281;-64
2024/04/24 09:11:02;;;;;;;1.23;0.97;;;7.00;99.90;;;;;;5233547;27;20238;-65
2024/04/24 09:13:28;;;;;;;0.47;0.40;;;7.20;99.90;;;;;;5240033;27;20734;-65
2024/04/24 09:15:55;;;;;;;0.83;0.47;;;7.70;99.90;;;;;;5239887;27;20230;-65
2024/04/24 09:18:21;;;;;;;0.37;0.37;;;8.30;99.90;;;;;;5239910;27;20344;-65
2024/04/24 09:20:47;;;;;;;0.50;0.40;;;9.10;99.90;;;;;;5238998;27;20241;-65
2024/04/24 09:23:19;;;;;;;2.70;1.47;;;9.80;99.90;;;;;;5239487;27;20237;-65
2024/04/24 09:25:45;;;;;;;1.93;0.77;;;9.80;99.90;;;;;;5226194;27;20234;-65
2024/04/24 09:28:11;;;;;;;0.33;0.33;;;9.80;99.90;;;;;;5239312;27;20373;-65
2024/04/24 09:30:38;;;;;;;0.50;0.37;;;9.20;99.90;;;;;;5224967;27;20329;-65
2024/04/24 09:33:04;;;;;;;6.13;0.50;;;8.40;99.90;;;;;;5239197;27;20237;-65
2024/04/24 09:35:30;;;;;;;7.57;0.50;;;7.60;99.90;;;;;;5239657;27;20285;-65
2024/04/24 09:37:56;;;;;;;0.20;0.20;;;6.80;99.90;;;;;;5239118;27;20233;-65
2024/04/24 09:40:24;;;;;;;0.50;0.23;;;6.20;99.90;;;;;;5238746;27;20344;-65
2024/04/24 09:42:50;;;;;;;1.20;0.60;;;5.90;99.90;;;;;;5225576;27;20593;-65
2024/04/24 09:45:19;;;;;;;0.77;0.40;;;5.80;99.90;;;;;;5239633;27;20233;-64
2024/04/24 09:47:45;;;;;;;1.33;0.63;;;5.90;99.90;;;;;;5239257;27;20284;-64
2024/04/24 09:50:13;;;;;;;0.87;0.50;;;6.20;99.90;;;;;;5238774;27;20241;-65
2024/04/24 09:52:45;;;;;;;0.50;0.50;;;6.60;99.90;;;;;;5239477;27;20242;-65
2024/04/24 09:55:11;;;;;;;0.30;0.30;;;7.20;99.90;;;;;;5235275;27;20290;-65
2024/04/24 09:57:39;;;;;;;0.57;0.40;;;7.70;99.90;;;;;;5229537;27;20281;-65
2024/04/24 10:00:05;;;;;;;0.67;0.43;;;8.10;99.90;;;;;;5237799;27;20275;-65
2024/04/24 10:02:35;;;;;;;0.30;0.30;;;8.60;99.90;;;;;;5239372;27;20242;-65
2024/04/24 10:05:16;;;;;;;2.77;1.93;;;9.10;99.90;;;;;;5239121;27;20284;-65
2024/04/24 10:07:59;;;;;;;2.80;1.70;;;9.30;99.90;;;;;;5239119;27;20249;-65
2024/04/24 10:10:38;;;;;;;2.63;1.07;;;9.20;99.90;;;;;;5237136;27;20239;-65
2024/04/24 10:13:05;;;;;;;1.00;0.47;;;9.10;99.90;;;;;;5238970;27;20304;-65
2024/04/24 10:15:39;;;;;;;0.43;0.43;;;9.30;99.90;;;;;;5239544;27;20620;-65
2024/04/24 10:18:06;;;;;;;0.60;0.50;;;9.60;99.90;;;;;;5264788;27;20271;-66
2024/04/24 10:20:33;;;;;;;0.37;0.37;;;10.10;99.90;;;;;;5238441;27;20242;-65
2024/04/24 10:23:00;;;;;;;0.50;0.40;;;10.80;99.90;;;;;;5239132;27;20237;-65
2024/04/24 10:25:26;;;;;;;2.40;0.37;;;11.40;99.90;;;;;;5225051;27;20237;-66
2024/04/24 10:27:55;;;;;;;0.70;0.40;;;11.60;99.90;;;;;;5238851;27;20245;-66
2024/04/24 10:30:22;;;;;;;0.23;0.20;;;11.20;99.90;;;;;;5238443;27;20344;-66
2024/04/24 10:32:48;;;;;;;0.30;0.30;;;11.00;99.90;;;;;;5238973;27;20343;-66
2024/04/24 10:35:14;;;;;;;0.60;0.50;;;10.70;99.90;;;;;;5239146;27;20623;-65
2024/04/24 10:37:40;;;;;;;0.40;0.40;;;10.40;99.90;;;;;;5238900;27;20658;-66
2024/04/24 10:40:11;;;;;;;1.33;0.60;;;10.10;99.90;;;;;;5237616;27;20272;-66
2024/04/24 10:42:37;;;;;;;1.07;0.50;;;10.10;99.90;;;;;;5237184;27;20257;-67
2024/04/24 10:45:03;;;;;;;0.33;0.30;;;10.00;99.90;;;;;;5239976;27;20729;-67
2024/04/24 10:47:30;;;;;;;0.37;0.30;;;9.70;99.90;;;;;;5254722;27;20716;-67
2024/04/24 10:49:58;;;;;;;2.23;0.70;;;9.60;99.90;;;;;;5241078;27;20344;-66
2024/04/24 10:52:24;;;;;;;2.30;1.13;;;9.60;99.90;;;;;;5227237;27;20666;-66
2024/04/24 10:54:50;;;;;;;0.83;0.57;;;9.50;99.90;;;;;;5241689;27;20348;-66
2024/04/24 10:57:16;;;;;;;1.00;0.50;;;9.30;99.90;;;;;;5241909;27;20238;-66
2024/04/24 10:59:45;;;;;;;0.30;0.30;;;9.20;99.90;;;;;;5241678;27;20238;-65
2024/04/24 11:02:10;;;;;;;0.50;0.50;;;9.30;99.90;;;;;;5239228;27;20234;-67
2024/04/24 11:04:36;;;;;;;1.00;0.53;;;9.30;99.90;;;;;;5217675;27;20269;-65
2024/04/24 11:07:02;;;;;;;1.73;0.60;;;9.60;99.90;;;;;;5239696;27;20289;-67
2024/04/24 11:09:28;;;;;;;0.87;0.70;;;9.80;99.90;;;;;;5241491;27;20289;-66
2024/04/24 11:11:56;;;;;;;2.73;0.93;;;9.80;99.90;;;;;;5227377;27;20288;-66
2024/04/24 11:14:21;;;;;;;1.23;0.47;;;9.80;99.90;;;;;;5233218;27;20762;-67
2024/04/24 11:16:57;;;;;;;5.60;1.37;;;9.80;99.90;;;;;;5233941;27;20582;-64
2024/04/24 11:19:22;;;;;;;1.27;0.60;;;9.60;99.90;;;;;;5235669;27;20370;-66
2024/04/24 11:21:48;;;;;;;1.00;0.53;;;9.70;99.90;;;;;;5233615;27;20246;-66
2024/04/24 11:24:14;;;;;;;0.90;0.50;;;9.60;99.90;;;;;;5236174;27;20237;-64
2024/04/24 11:26:40;;;;;;;1.90;0.83;;;9.80;99.90;;;;;;5231507;27;20314;-67
2024/04/24 11:29:07;;;;;;;0.40;0.30;;;9.90;99.90;;;;;;5237863;27;20673;-67
2024/04/24 11:31:42;;;;;;;1.57;1.07;;;10.20;99.90;;;;;;5240975;27;20280;-65
2024/04/24 11:34:10;;;;;;;1.80;0.50;;;10.40;99.90;;;;;;5238894;27;20279;-67
2024/04/24 11:36:36;;;;;;;6.40;0.50;;;10.70;99.90;;;;;;5206493;27;20730;-66
2024/04/24 11:39:02;;;;;;;1.53;0.40;;;11.00;99.90;;;;;;5236818;27;20281;-66
2024/04/24 11:41:32;;;;;;;0.73;0.40;;;11.20;99.90;;;;;;5227120;27;20238;-67
2024/04/24 11:43:58;;;;;;;1.03;0.30;;;11.40;99.90;;;;;;5241249;27;20312;-66
2024/04/24 11:46:25;;;;;;;1.07;0.63;;;11.60;99.90;;;;;;5227658;27;20784;-66
2024/04/24 11:48:55;;;;;;;1.03;0.50;;;11.70;99.90;;;;;;5241486;27;20276;-66
2024/04/24 11:51:22;;;;;;;5.70;0.67;;;11.80;99.90;;;;;;5240244;27;20772;-67
2024/04/24 11:53:49;;;;;;;0.30;0.30;;;11.60;99.90;;;;;;5241346;27;20671;-66
2024/04/24 11:56:15;;;;;;;3.17;0.63;;;11.30;99.90;;;;;;5240613;27;20241;-66
2024/04/24 11:58:41;;;;;;;0.27;0.20;;;11.40;99.90;;;;;;5241061;27;20233;-66
2024/04/24 12:01:08;;;;;;;0.33;0.33;;;11.50;99.90;;;;;;5240364;27;20609;-68
2024/04/24 12:03:33;;;;;;;1.03;0.50;;;11.70;99.90;;;;;;5240999;27;20324;-66
2024/04/24 12:06:03;;;;;;;0.87;0.40;;;11.70;99.90;;;;;;5240997;27;20640;-66
2024/04/24 12:08:30;;;;;;;0.70;0.37;;;11.80;99.90;;;;;;5227131;27;20289;-66
2024/04/24 12:11:00;;;;;;;0.40;0.40;;;11.90;99.90;;;;;;5226220;27;20280;-67
2024/04/24 12:13:28;;;;;;;1.40;0.40;;;12.20;99.90;;;;;;5214562;27;20238;-67
2024/04/24 12:15:56;;;;;;;2.10;0.50;;;12.10;99.90;;;;;;5240758;27;20285;-65
2024/04/24 12:18:22;;;;;;;0.63;0.40;;;12.10;99.90;;;;;;5221243;27;20353;-66
2024/04/24 12:20:47;;;;;;;0.20;0.20;;;12.10;99.90;;;;;;5232396;27;20738;-65
2024/04/24 12:23:13;;;;;;;0.77;0.40;;;12.00;99.90;;;;;;5238797;27;20356;-66
2024/04/24 12:25:38;;;;;;;1.00;0.30;;;12.20;99.90;;;;;;5227142;27;20234;-66
2024/04/24 12:28:04;;;;;;;0.97;0.53;;;12.50;99.90;;;;;;5240481;27;20281;-66
2024/04/24 12:30:30;;;;;;;0.30;0.20;;;12.80;99.90;;;;;;5240218;27;20241;-66
2024/04/24 12:32:55;;;;;;;0.60;0.43;;;13.10;99.90;;;;;;5240580;27;20975;-65
2024/04/24 12:35:21;;;;;;;0.63;0.43;;;13.10;99.90;;;;;;5240389;27;20304;-65
2024/04/24 12:37:46;;;;;;;0.43;0.40;;;13.20;99.90;;;;;;5238785;27;20793;-66
2024/04/24 12:40:13;;;;;;;1.27;0.50;;;13.00;99.90;;;;;;5225886;27;20237;-66
2024/04/24 12:42:40;;;;;;;0.77;0.63;;;12.40;99.90;;;;;;5240669;27;20575;-66
2024/04/24 12:45:07;;;;;;;1.53;0.60;;;12.00;99.90;;;;;;5226683;27;20340;-65
2024/04/24 12:47:32;;;;;;;2.23;1.17;;;11.60;99.90;;;;;;5240244;27;20242;-67
2024/04/24 12:49:58;;;;;;;2.33;1.00;;;12.00;99.90;;;;;;5239425;27;20242;-66
2024/04/24 12:52:24;;;;;;;0.50;0.50;;;12.40;99.90;;;;;;5240255;27;20345;-65
2024/04/24 12:54:49;;;;;;;0.70;0.60;;;12.70;99.90;;;;;;5240329;27;20348;-64